Renderfarm Status:OK
Avg Time Per Frame:13.9 min/frame
Total Users Today:2
Total CPU Time Today:114.57 Hours
Total Frames Waiting:0
Today's CPU Champion:raxiao20 / 3 days 12 hr
Active Jobs
Job User Frames Renderer Total CPU Average Start End Status
63743 rholid20 100 houdini 0.74 Hours 0.4 min 04/20 12:51 AM Rendering
63742 jaekim21 1 arnold 0 Hours 0 min 04/20 12:50 AM Rendering
63726 raxiao20 100 arnold 117.86 Hours 73.7 min 04/19 10:53 PM Rendering
Completed Jobs
Job User Frames Renderer Total CPU Average Start End Speedup Status
63741 rholid20 20 houdini 0.37 Hours 1.1 min 04/20 12:46 AM 04/20 12:48 AM 9.3x Complete!
63740 rholid20 100 houdini 1.99 Hours 1.2 min 04/20 12:41 AM 04/20 12:44 AM 41.6x Complete!
63739 rholid20 20 houdini 0.45 Hours 1.3 min 04/20 12:37 AM 04/20 12:38 AM 15x Complete!
63738 rholid20 100 houdini 2.51 Hours 1.5 min 04/20 12:32 AM 04/20 12:35 AM 43.8x Complete!
63737 jaekim21 1 arnold 0.27 Hours 16.5 min 04/20 12:25 AM 04/20 12:41 AM 1x Complete!
63736 rholid20 20 houdini 2.03 Hours 6.1 min 04/20 12:19 AM 04/20 12:31 AM 9.9x Complete!
63735 jaekim21 1 arnold 0.27 Hours 16.5 min 04/19 11:55 PM 04/20 12:11 AM 1x Complete!
63734 jwalke40 14 arnold 6.17 Hours 26.4 min 04/19 11:50 PM 04/20 12:28 AM 9.6x Complete!
63733 rholid20 100 houdini 11.22 Hours 6.7 min 04/19 11:36 PM 04/19 11:56 PM 33.8x Complete!
63732 jaekim21 1 arnold 0.23 Hours 13.5 min 04/19 11:33 PM 04/19 11:46 PM 1x Complete!
63731 rholid20 20 houdini 1.19 Hours 3.6 min 04/19 11:30 PM 04/19 11:35 PM 14.2x Complete!
63730 cpierc20 100 arnold 24.54 Hours 14.7 min 04/19 11:23 PM 04/20 12:24 AM 24.3x Complete!
63729 jaekim21 1 arnold 0 Hours 0 min 04/19 11:20 PM 04/19 11:32 PM 0x Complete!
63728 rholid20 100 houdini 5.88 Hours 3.5 min 04/19 11:17 PM 04/19 11:28 PM 32x Complete!
63727 ncastr20 100 houdini 10.21 Hours 6.1 min 04/19 10:56 PM 04/19 11:25 PM 21x Complete!
63725 rjustu20 20 arnold 2.86 Hours 8.6 min 04/19 10:40 PM 04/19 10:52 PM 14.5x Complete!
63724 lpittm21 20 arnold 18.43 Hours 55.3 min 04/19 10:38 PM 04/19 11:52 PM 14.8x Complete!
63723 agoltz20 1 arnold 0.14 Hours 8.3 min 04/19 10:29 PM 04/19 10:37 PM 1x Complete!
63722 jwalke40 100 arnold 38.99 Hours 23.4 min 04/19 10:25 PM 04/19 11:08 PM 54.6x Complete!
63721 jaekim21 1 arnold 0.78 Hours 46.5 min 04/19 10:17 PM 04/19 11:04 PM 1x Complete!
63720 agoltz20 1 arnold 0.12 Hours 7 min 04/19 10:15 PM 04/19 10:22 PM 0.9x Complete!
63719 rjustu20 100 arnold 18.7 Hours 11.2 min 04/19 10:07 PM 04/19 10:31 PM 45.4x Complete!
63718 htrive20 100 arnold 66.61 Hours 40 min 04/19 09:24 PM 04/19 11:18 PM 35x Complete!
63717 rclark26 100 arnold 4.73 Hours 2.8 min 04/19 09:23 PM 04/19 09:29 PM 44.9x Complete!
63716 jaekim21 51 arnold 18.99 Hours 22.3 min 04/19 09:15 PM 04/19 10:17 PM 18.4x Complete!
63715 jaekim21 51 arnold 0 Hours 0 min 04/19 09:12 PM 04/19 09:15 PM 0x Complete!
63714 jwalke40 77 arnold 7.65 Hours 6 min 04/19 09:03 PM 04/19 09:20 PM 26x Complete!
63713 jaekim21 51 arnold 0 Hours 0 min 04/19 07:57 PM 04/19 09:12 PM 0x Complete!
63712 yhuang40 100 houdini 10.13 Hours 6.1 min 04/19 07:54 PM 04/19 09:09 PM 8.2x Complete!
63711 rclark26 100 arnold 4.17 Hours 2.5 min 04/19 07:46 PM 04/19 09:00 PM 3.4x Complete!
63710 jwalke40 100 arnold 8.84 Hours 5.3 min 04/19 07:40 PM 04/19 08:57 PM 6.9x Complete!
63709 raxiao20 100 arnold 61.97 Hours 37.2 min 04/19 07:38 PM 04/19 09:42 PM 29.9x Complete!
63708 raxiao20 100 arnold 0 Hours 0 min 04/19 07:33 PM 04/19 07:35 PM 0x Complete!
63707 raxiao20 100 arnold 0 Hours 0 min 04/19 07:33 PM 0x Complete!
63706 lpittm21 100 arnold 92.59 Hours 55.6 min 04/19 07:31 PM 04/19 09:38 PM 43.5x Complete!
63705 lpittm21 20 arnold 0 Hours 0 min 04/19 07:25 PM 04/19 07:30 PM 0x Complete!
63704 jaekim21 1 arnold 0.2 Hours 12.1 min 04/19 07:05 PM 04/19 07:50 PM 0.3x Complete!
63703 jaekim21 1 arnold 0 Hours 0 min 04/19 07:05 PM 04/19 07:05 PM 0x Complete!
63702 rclark26 100 arnold 3.97 Hours 2.4 min 04/19 07:03 PM 04/19 07:42 PM 6.1x Complete!
63701 agoltz20 99 arnold 13.15 Hours 8 min 04/19 06:50 PM 04/19 07:53 PM 12.6x Complete!
63700 raxiao20 100 arnold 12.5 Hours 7.5 min 04/19 06:48 PM 04/19 07:32 PM 17x Complete!
63699 raxiao20 100 arnold 0 Hours 0 min 04/19 06:47 PM 0x Complete!
63698 ewimer20 26 arnold 15.26 Hours 35.2 min 04/19 06:35 PM 04/19 08:23 PM 8.4x Complete!
63697 njones26 1 rman 0 Hours 0 min 04/19 06:27 PM 04/19 09:00 PM 0x Complete!
63696 rclark26 100 arnold 3.24 Hours 1.9 min 04/19 06:26 PM 04/19 07:02 PM 5.3x Complete!
63695 chulee22 1 arnold 1.03 Hours 61.6 min 04/19 06:23 PM 04/19 07:49 PM 0.7x Complete!
63694 hinlee20 71 arnold 47.37 Hours 40 min 04/19 06:20 PM 04/19 08:07 PM 26.6x Complete!
63693 yhuang40 100 houdini 11.36 Hours 6.8 min 04/19 06:14 PM 04/19 06:39 PM 26.9x Complete!
63692 agoltz20 1 arnold 0.09 Hours 5.3 min 04/19 05:42 PM 04/19 06:26 PM 0.1x Complete!
63691 rclark26 100 arnold 3.43 Hours 2.1 min 04/19 05:30 PM 04/19 06:23 PM 3.9x Complete!
Copyright 2014 Savannah College of Art and Design